Hortonville, New York
Current Conditions -  °F | °C
As of 11:55 PM on Thursday 20 Nov 2014 (Local Time) from KMSV Reporting Station
Clear Clear  
Wind Chill: 13°   Ceiling: Unl
Heat Index: 21°   Visibility: 10mi
Dew Point:   Wind: 7mph
Humidity: 50%   Direction: 270°W
Pressure: 29.95"   Gusts: 16mph
Location:  41.76°N, 75.03°W
Report Text: KMSV 210455Z AUTO 27006G14KT 10SM CLR M06/M15 A2995 RMK AO1
Loading
Personal Weather Stations






























Interactive Weather Map New forecast layout! Learn more

10-Day Weather Forecast

Advertisements
Track Severe Weather on mobile